createdAt,value
2023-02-07T00:01:21.632Z,11.37
2023-02-07T00:03:49.265Z,10.93
2023-02-07T00:06:29.336Z,11.70
2023-02-07T00:08:58.335Z,10.47
2023-02-07T00:11:26.087Z,14.30
2023-02-07T00:13:55.174Z,12.10
2023-02-07T00:16:25.393Z,15.07
2023-02-07T00:18:53.417Z,10.90
2023-02-07T00:21:23.246Z,10.87
2023-02-07T00:23:51.803Z,10.40
2023-02-07T00:26:21.184Z,11.20
2023-02-07T00:28:51.361Z,11.90
2023-02-07T00:31:25.816Z,11.77
2023-02-07T00:33:56.388Z,9.77
2023-02-07T00:36:26.436Z,13.17
2023-02-07T00:38:59.416Z,11.77
2023-02-07T00:41:27.979Z,14.30
2023-02-07T00:43:56.273Z,11.80
2023-02-07T00:46:25.002Z,11.67
2023-02-07T00:48:54.468Z,11.30
2023-02-07T00:51:22.602Z,10.70
2023-02-07T00:53:49.801Z,12.37
2023-02-07T00:56:19.254Z,10.70
2023-02-07T00:58:46.654Z,11.90
2023-02-07T01:01:14.605Z,12.00
2023-02-07T01:03:42.164Z,8.60
2023-02-07T01:06:10.256Z,10.10
2023-02-07T01:08:38.768Z,10.57
2023-02-07T01:11:09.355Z,10.00
2023-02-07T01:13:38.476Z,11.47
2023-02-07T01:16:06.201Z,11.13
2023-02-07T01:18:33.397Z,10.47
2023-02-07T01:21:02.933Z,11.93
2023-02-07T01:23:30.140Z,11.23
2023-02-07T01:25:57.685Z,15.60
2023-02-07T01:28:24.957Z,11.10
2023-02-07T01:30:52.175Z,11.07
2023-02-07T01:33:19.426Z,10.60
2023-02-07T01:35:46.993Z,10.77
2023-02-07T01:38:15.357Z,13.93
2023-02-07T01:40:42.917Z,8.70
2023-02-07T01:43:19.645Z,12.73
2023-02-07T01:45:46.887Z,10.27
2023-02-07T01:48:20.576Z,8.87
2023-02-07T01:50:51.291Z,9.33
2023-02-07T01:53:22.289Z,10.30
2023-02-07T01:55:53.630Z,11.57
2023-02-07T01:58:22.499Z,13.23
2023-02-07T02:00:51.012Z,9.20
2023-02-07T02:03:18.316Z,9.97
2023-02-07T02:05:47.077Z,13.30
2023-02-07T02:08:15.500Z,11.40
2023-02-07T02:11:08.967Z,16.13
2023-02-07T02:14:15.660Z,13.17
2023-02-07T02:16:58.592Z,9.50
2023-02-07T02:19:28.477Z,10.00
2023-02-07T02:22:24.300Z,10.57
2023-02-07T02:25:29.810Z,11.80
2023-02-07T02:28:10.934Z,11.10
2023-02-07T02:30:54.708Z,13.13
2023-02-07T02:33:40.604Z,9.30
2023-02-07T02:36:45.798Z,9.40
2023-02-07T02:39:25.833Z,7.97
2023-02-07T02:42:08.586Z,9.87
2023-02-07T02:44:44.235Z,8.57
2023-02-07T02:47:11.947Z,8.20
2023-02-07T02:49:39.542Z,9.57
2023-02-07T02:52:08.191Z,10.23
2023-02-07T02:54:37.814Z,8.40
2023-02-07T02:57:28.417Z,7.63
2023-02-07T03:00:30.475Z,8.23
2023-02-07T03:03:33.216Z,9.30
2023-02-07T03:06:30.401Z,6.93
2023-02-07T03:09:20.941Z,7.77
2023-02-07T03:12:05.151Z,6.37
2023-02-07T03:15:04.000Z,7.17
2023-02-07T03:17:56.109Z,8.90
2023-02-07T03:20:31.699Z,9.63
2023-02-07T03:23:02.221Z,8.73
2023-02-07T03:25:31.524Z,8.67
2023-02-07T03:28:00.886Z,11.87
2023-02-07T03:30:32.688Z,7.77
2023-02-07T03:33:09.925Z,9.80
2023-02-07T03:36:02.667Z,8.87
2023-02-07T03:38:30.630Z,11.50
2023-02-07T03:41:02.148Z,9.57
2023-02-07T03:43:32.571Z,10.27
2023-02-07T03:46:00.528Z,10.30
2023-02-07T03:48:27.714Z,10.20
2023-02-07T03:50:54.908Z,10.50
2023-02-07T03:53:22.157Z,10.87
2023-02-07T03:55:49.339Z,9.13
2023-02-07T03:58:16.606Z,7.97
2023-02-07T04:00:43.824Z,9.20
2023-02-07T04:03:11.333Z,9.10
2023-02-07T04:05:38.927Z,8.63
2023-02-07T04:08:06.358Z,8.80
2023-02-07T04:10:33.517Z,10.97
2023-02-07T04:13:00.694Z,8.90
2023-02-07T04:15:28.496Z,10.50
2023-02-07T04:17:55.644Z,8.17
2023-02-07T04:20:23.326Z,10.53
2023-02-07T04:22:50.524Z,14.33
2023-02-07T04:25:18.590Z,8.50
2023-02-07T04:27:46.097Z,9.40
2023-02-07T04:30:13.486Z,10.23
2023-02-07T04:32:41.575Z,9.73
2023-02-07T04:35:09.559Z,10.53
2023-02-07T04:37:37.182Z,10.37
2023-02-07T04:40:05.163Z,11.63
2023-02-07T04:42:32.413Z,9.57
2023-02-07T04:44:59.640Z,11.23
2023-02-07T04:47:26.853Z,9.30
2023-02-07T04:49:54.427Z,8.47
2023-02-07T04:52:21.610Z,10.30
2023-02-07T04:54:48.860Z,10.03
2023-02-07T04:57:16.425Z,13.43
2023-02-07T04:59:43.579Z,7.80
2023-02-07T05:02:10.748Z,9.57
2023-02-07T05:04:38.595Z,9.43
2023-02-07T05:07:06.050Z,9.17
2023-02-07T05:09:33.305Z,12.90
2023-02-07T05:12:00.576Z,12.03
2023-02-07T05:14:27.838Z,9.57
2023-02-07T05:16:55.109Z,10.40
2023-02-07T05:19:22.388Z,10.10
2023-02-07T05:21:49.553Z,11.37
2023-02-07T05:24:17.101Z,9.13
2023-02-07T05:26:44.288Z,12.23
2023-02-07T05:29:11.432Z,11.67
2023-02-07T05:31:57.716Z,10.20
2023-02-07T05:34:25.307Z,12.57
2023-02-07T05:36:53.393Z,7.90
2023-02-07T05:39:20.746Z,11.13
2023-02-07T05:41:48.302Z,9.60
2023-02-07T05:44:16.198Z,9.90
2023-02-07T05:46:43.448Z,9.90
2023-02-07T05:49:10.783Z,9.67
2023-02-07T05:51:37.989Z,8.07
2023-02-07T05:54:05.234Z,11.40
2023-02-07T05:56:32.417Z,11.63
2023-02-07T05:58:59.645Z,10.60
2023-02-07T06:01:26.807Z,10.50
2023-02-07T06:03:54.022Z,12.03
2023-02-07T06:06:21.261Z,10.30
2023-02-07T06:08:48.423Z,11.00
2023-02-07T06:11:15.574Z,12.53
2023-02-07T06:13:42.900Z,12.00
2023-02-07T06:16:10.712Z,10.37
2023-02-07T06:18:38.563Z,12.23
2023-02-07T06:21:06.351Z,8.73
2023-02-07T06:23:33.532Z,14.43
2023-02-07T06:26:00.865Z,10.60
2023-02-07T06:28:28.078Z,11.60
2023-02-07T06:30:55.422Z,10.37
2023-02-07T06:33:22.626Z,12.87
2023-02-07T06:35:50.288Z,9.30
2023-02-07T06:38:18.406Z,10.40
2023-02-07T06:40:46.027Z,10.53
2023-02-07T06:43:13.705Z,12.97
2023-02-07T06:45:41.003Z,12.83
2023-02-07T06:48:09.580Z,13.43
2023-02-07T06:50:37.277Z,13.00
2023-02-07T06:53:04.712Z,13.70
2023-02-07T06:55:36.316Z,12.73
2023-02-07T06:58:05.592Z,9.87
2023-02-07T07:00:32.908Z,15.73
2023-02-07T07:03:00.387Z,10.60
2023-02-07T07:05:30.623Z,10.97
2023-02-07T07:07:57.868Z,10.30
2023-02-07T07:10:25.767Z,10.53
2023-02-07T07:12:53.605Z,9.60
2023-02-07T07:15:20.936Z,8.90
2023-02-07T07:17:48.083Z,9.80
2023-02-07T07:20:17.572Z,11.70
2023-02-07T07:22:44.930Z,9.57
2023-02-07T07:25:12.501Z,11.10
2023-02-07T07:27:39.663Z,11.20
2023-02-07T07:30:10.634Z,8.70
2023-02-07T07:32:38.753Z,11.53
2023-02-07T07:35:07.434Z,9.90
2023-02-07T07:37:34.785Z,13.50
2023-02-07T07:40:05.705Z,11.90
2023-02-07T07:42:32.924Z,12.77
2023-02-07T07:45:10.890Z,14.50
2023-02-07T07:47:38.079Z,14.90
2023-02-07T07:50:06.727Z,13.83
2023-02-07T07:52:34.853Z,16.70
2023-02-07T07:55:02.064Z,12.70
2023-02-07T07:57:30.541Z,14.13
2023-02-07T07:59:57.786Z,13.87
2023-02-07T08:02:25.034Z,12.67
2023-02-07T08:04:52.365Z,14.17
2023-02-07T08:07:19.664Z,13.70
2023-02-07T08:09:47.200Z,14.17
2023-02-07T08:12:14.369Z,14.10
2023-02-07T08:14:41.571Z,15.00
2023-02-07T08:17:08.756Z,14.03
2023-02-07T08:19:38.166Z,16.23
2023-02-07T08:22:05.463Z,15.70
2023-02-07T08:24:33.867Z,15.43
2023-02-07T08:27:02.326Z,17.30
2023-02-07T08:29:29.543Z,14.33
2023-02-07T08:31:56.775Z,16.50
2023-02-07T08:34:26.270Z,16.30
2023-02-07T08:36:53.586Z,16.23
2023-02-07T08:39:21.506Z,18.30
2023-02-07T08:41:50.559Z,18.70
2023-02-07T08:44:17.754Z,18.40
2023-02-07T08:46:44.968Z,18.70
2023-02-07T08:49:12.218Z,15.83
2023-02-07T08:51:39.586Z,14.73
2023-02-07T08:54:06.799Z,19.20
2023-02-07T08:56:34.029Z,16.70
2023-02-07T08:59:01.955Z,17.63
2023-02-07T09:01:29.302Z,16.43
2023-02-07T09:03:57.155Z,15.70
2023-02-07T09:06:25.776Z,21.80
2023-02-07T09:08:54.155Z,15.73
2023-02-07T09:11:23.030Z,12.83
2023-02-07T09:13:50.331Z,15.17
2023-02-07T09:16:17.651Z,15.90
2023-02-07T09:18:44.848Z,16.37
2023-02-07T09:21:12.166Z,15.73
2023-02-07T09:23:39.423Z,14.17
2023-02-07T09:26:08.353Z,15.20
2023-02-07T09:28:36.106Z,12.13
2023-02-07T09:31:11.445Z,16.87
2023-02-07T09:33:39.568Z,16.30
2023-02-07T09:36:15.550Z,16.17
2023-02-07T09:38:44.371Z,15.60
2023-02-07T09:41:22.390Z,15.13
2023-02-07T09:44:03.112Z,13.97
2023-02-07T09:46:49.249Z,17.37
2023-02-07T09:49:45.919Z,14.30
2023-02-07T09:52:50.575Z,14.53
2023-02-07T09:55:25.453Z,14.17
2023-02-07T09:58:06.642Z,13.00
2023-02-07T10:00:37.784Z,12.63
2023-02-07T10:03:09.613Z,13.90
2023-02-07T10:05:46.241Z,12.30
2023-02-07T10:08:16.944Z,11.93
2023-02-07T10:11:06.223Z,11.70
2023-02-07T10:13:59.969Z,12.20
2023-02-07T10:17:04.010Z,12.60
2023-02-07T10:19:42.561Z,12.37
2023-02-07T10:22:19.244Z,11.47
2023-02-07T10:25:15.931Z,12.43
2023-02-07T10:28:09.933Z,11.53
2023-02-07T10:30:41.934Z,11.13
2023-02-07T10:33:18.953Z,11.23
2023-02-07T10:35:49.590Z,11.67
2023-02-07T10:39:08.526Z,10.97
2023-02-07T10:41:48.100Z,10.97
2023-02-07T10:44:20.873Z,11.30
2023-02-07T10:49:45.179Z,11.67
2023-02-07T10:52:37.457Z,8.77
2023-02-07T10:55:08.590Z,10.03
2023-02-07T10:57:37.038Z,9.90
2023-02-07T11:00:06.034Z,10.23
2023-02-07T11:02:38.903Z,9.83
2023-02-07T11:05:15.750Z,10.30
2023-02-07T11:08:22.890Z,9.77
2023-02-07T11:10:54.893Z,11.67
2023-02-07T11:13:29.201Z,9.90
2023-02-07T11:16:00.972Z,10.97
2023-02-07T11:18:38.477Z,9.77
2023-02-07T11:21:09.050Z,10.33
2023-02-07T11:23:37.073Z,9.53
2023-02-07T11:26:04.916Z,9.70
2023-02-07T11:28:32.757Z,9.77
2023-02-07T11:31:10.213Z,8.83
2023-02-07T11:33:37.755Z,8.63
2023-02-07T11:36:15.096Z,9.27
2023-02-07T11:38:49.473Z,9.53
2023-02-07T11:41:24.463Z,9.40
2023-02-07T11:43:55.566Z,9.67
2023-02-07T11:46:30.456Z,9.00
2023-02-07T11:48:58.795Z,9.60
2023-02-07T11:51:26.871Z,8.20
2023-02-07T11:53:57.950Z,7.87
2023-02-07T11:56:36.015Z,8.10
2023-02-07T11:59:15.431Z,8.20
2023-02-07T12:01:44.946Z,8.07
2023-02-07T12:04:24.661Z,7.70
2023-02-07T12:07:00.822Z,7.70
2023-02-07T12:09:49.117Z,7.77
2023-02-07T12:12:23.898Z,7.33
2023-02-07T12:14:58.307Z,6.80
2023-02-07T12:17:57.095Z,8.03
2023-02-07T12:20:31.650Z,8.57
2023-02-07T12:23:39.186Z,7.83
2023-02-07T12:26:01.782Z,8.70
2023-02-07T12:28:37.687Z,7.40
2023-02-07T12:31:18.259Z,7.10
2023-02-07T12:34:02.124Z,6.13
2023-02-07T12:36:44.257Z,7.23
2023-02-07T12:39:24.002Z,8.17
2023-02-07T12:42:19.487Z,5.50
2023-02-07T12:44:53.511Z,6.87
2023-02-07T12:47:27.452Z,6.50
2023-02-07T12:50:12.820Z,5.80
2023-02-07T12:53:11.075Z,5.40
2023-02-07T12:55:59.571Z,5.00
2023-02-07T12:58:41.837Z,4.70
2023-02-07T13:01:27.921Z,4.40
2023-02-07T13:04:33.399Z,4.40
2023-02-07T13:07:33.026Z,4.80
2023-02-07T13:10:13.329Z,4.90
2023-02-07T13:12:51.038Z,6.10
2023-02-07T13:15:29.979Z,5.80
2023-02-07T13:18:15.372Z,5.47
2023-02-07T13:21:10.738Z,5.20
2023-02-07T13:23:43.964Z,5.10
2023-02-07T13:26:17.057Z,5.60
2023-02-07T13:29:02.827Z,4.97
2023-02-07T13:31:37.404Z,6.20
2023-02-07T13:34:04.996Z,6.07
2023-02-07T13:36:43.998Z,5.73
2023-02-07T13:39:46.677Z,5.23
2023-02-07T13:42:36.104Z,5.00
2023-02-07T13:45:14.425Z,6.20
2023-02-07T13:47:55.139Z,5.50
2023-02-07T13:50:41.486Z,6.20
2023-02-07T13:53:46.851Z,4.93
2023-02-07T13:56:34.354Z,4.93
2023-02-07T13:59:21.243Z,5.90
2023-02-07T14:01:59.099Z,5.70
2023-02-07T14:04:47.082Z,5.27
2023-02-07T14:07:29.591Z,4.90
2023-02-07T14:09:58.923Z,5.63
2023-02-07T14:12:30.632Z,5.50
2023-02-07T14:15:34.742Z,6.20
2023-02-07T14:18:26.500Z,5.20
2023-02-07T14:21:05.452Z,4.70
2023-02-07T14:23:53.747Z,4.90
2023-02-07T14:26:39.384Z,4.93
2023-02-07T14:29:24.606Z,5.47
2023-02-07T14:32:22.485Z,5.90
2023-02-07T14:35:15.631Z,4.83
2023-02-07T14:38:15.479Z,4.87
2023-02-07T14:40:43.183Z,4.63
2023-02-07T14:43:13.443Z,5.97
2023-02-07T14:46:05.994Z,4.93
2023-02-07T14:48:41.783Z,5.63
2023-02-07T14:51:14.528Z,5.70
2023-02-07T14:53:45.043Z,5.50
2023-02-07T14:56:38.360Z,6.00
2023-02-07T14:59:07.895Z,5.60
2023-02-07T15:01:35.492Z,6.80
2023-02-07T15:04:05.779Z,5.93
2023-02-07T15:06:44.567Z,6.20
2023-02-07T15:09:27.554Z,6.33
2023-02-07T15:12:10.774Z,6.10
2023-02-07T15:14:46.458Z,5.93
2023-02-07T15:17:21.671Z,6.17
2023-02-07T15:19:49.768Z,5.73
2023-02-07T15:22:27.643Z,6.20
2023-02-07T15:24:59.370Z,6.23
2023-02-07T15:27:28.560Z,13.17
2023-02-07T15:30:01.364Z,13.00
2023-02-07T15:32:31.365Z,11.37
2023-02-07T15:35:18.981Z,14.13
2023-02-07T15:37:47.262Z,14.30
2023-02-07T15:40:17.284Z,15.03
2023-02-07T15:42:58.047Z,14.87
2023-02-07T15:45:33.297Z,15.53
2023-02-07T15:48:03.809Z,15.00
2023-02-07T15:50:31.626Z,15.03
2023-02-07T15:53:08.426Z,18.20
2023-02-07T15:55:37.944Z,18.07
2023-02-07T15:58:05.691Z,16.60
2023-02-07T16:00:39.089Z,17.00
2023-02-07T16:03:21.746Z,20.37
2023-02-07T16:06:00.341Z,18.03
2023-02-07T16:08:32.401Z,18.63
2023-02-07T16:11:13.006Z,17.53
2023-02-07T16:13:54.011Z,15.63
2023-02-07T16:16:32.976Z,17.67
2023-02-07T16:19:24.991Z,23.23
2023-02-07T16:22:14.998Z,20.10
2023-02-07T16:24:44.637Z,19.90
2023-02-07T16:27:24.413Z,19.03
2023-02-07T16:29:51.785Z,16.80
2023-02-07T16:32:19.841Z,20.63
2023-02-07T16:34:59.287Z,20.50
2023-02-07T16:37:29.574Z,20.03
2023-02-07T16:39:56.784Z,20.07
2023-02-07T16:42:24.674Z,18.20
2023-02-07T16:44:52.388Z,20.23
2023-02-07T16:47:19.792Z,18.40
2023-02-07T16:49:47.044Z,22.30
2023-02-07T16:52:14.233Z,19.30
2023-02-07T16:54:41.491Z,18.00
2023-02-07T16:57:10.942Z,20.37
2023-02-07T16:59:38.190Z,21.90
2023-02-07T17:02:13.173Z,18.83
2023-02-07T17:04:40.434Z,23.40
2023-02-07T17:07:11.226Z,19.67
2023-02-07T17:09:38.495Z,21.23
2023-02-07T17:12:07.197Z,23.00
2023-02-07T17:14:38.312Z,20.53
2023-02-07T17:17:05.692Z,19.40
2023-02-07T17:19:32.967Z,18.03
2023-02-07T17:22:00.920Z,26.90
2023-02-07T17:24:28.270Z,22.03
2023-02-07T17:26:56.277Z,20.43
2023-02-07T17:29:25.023Z,23.00
2023-02-07T17:31:52.633Z,19.50
2023-02-07T17:34:20.024Z,17.60
2023-02-07T17:36:49.563Z,22.27
2023-02-07T17:39:18.113Z,20.00
2023-02-07T17:41:45.456Z,20.80
2023-02-07T17:44:12.989Z,21.43
2023-02-07T17:46:40.243Z,19.40
2023-02-07T17:49:13.909Z,21.83
2023-02-07T17:51:41.212Z,23.00
2023-02-07T17:54:08.417Z,27.10
2023-02-07T17:56:35.785Z,30.93
2023-02-07T17:59:05.894Z,27.40
2023-02-07T18:01:33.498Z,27.43
2023-02-07T18:04:02.744Z,30.00
2023-02-07T18:06:30.445Z,27.70
2023-02-07T18:08:58.544Z,25.87
2023-02-07T18:11:30.294Z,25.70
2023-02-07T18:13:57.535Z,27.50
2023-02-07T18:16:26.116Z,23.07
2023-02-07T18:18:56.343Z,22.90
2023-02-07T18:21:24.234Z,23.50
2023-02-07T18:23:53.190Z,24.87
2023-02-07T18:26:21.032Z,25.40
2023-02-07T18:28:48.706Z,24.00
2023-02-07T18:31:19.791Z,26.43
2023-02-07T18:33:48.021Z,18.93
2023-02-07T18:36:16.419Z,21.80
2023-02-07T18:38:45.945Z,21.03
2023-02-07T18:41:23.018Z,19.30
2023-02-07T18:43:50.373Z,23.07
2023-02-07T18:46:19.870Z,21.87
2023-02-07T18:48:51.098Z,23.63
2023-02-07T18:51:19.434Z,21.00
2023-02-07T18:53:46.787Z,19.70
2023-02-07T18:56:15.857Z,22.87
2023-02-07T18:58:47.097Z,21.67
2023-02-07T19:01:19.883Z,20.80
2023-02-07T19:03:54.039Z,22.67
2023-02-07T19:06:24.273Z,29.53
2023-02-07T19:08:52.418Z,28.33
2023-02-07T19:11:20.418Z,21.03
2023-02-07T19:13:47.925Z,23.37
2023-02-07T19:16:18.304Z,28.20
2023-02-07T19:18:46.327Z,24.17
2023-02-07T19:21:17.976Z,25.23
2023-02-07T19:23:45.395Z,27.27
2023-02-07T19:26:13.202Z,29.33
2023-02-07T19:28:40.629Z,29.03
2023-02-07T19:31:13.280Z,26.83
2023-02-07T19:33:41.338Z,25.93
2023-02-07T19:36:11.502Z,22.53
2023-02-07T19:38:38.987Z,17.40
2023-02-07T19:41:07.234Z,16.80
2023-02-07T19:43:35.909Z,14.90
2023-02-07T19:46:03.212Z,18.13
2023-02-07T19:48:30.611Z,11.87
2023-02-07T19:51:03.023Z,13.30
2023-02-07T19:53:30.831Z,15.27
2023-02-07T19:56:03.699Z,11.03
2023-02-07T19:58:32.444Z,11.47
2023-02-07T20:01:00.042Z,10.60
2023-02-07T20:03:28.099Z,13.37
2023-02-07T20:05:55.301Z,11.33
2023-02-07T20:08:22.520Z,10.93
2023-02-07T20:10:50.743Z,13.50
2023-02-07T20:13:17.992Z,12.40
2023-02-07T20:15:47.030Z,12.30
2023-02-07T20:18:14.631Z,13.30
2023-02-07T20:20:43.689Z,12.67
2023-02-07T20:23:11.701Z,10.37
2023-02-07T20:25:40.163Z,14.97
2023-02-07T20:28:07.832Z,14.30
2023-02-07T20:30:35.928Z,11.13
2023-02-07T20:33:03.096Z,11.03
2023-02-07T20:35:30.310Z,11.20
2023-02-07T20:37:57.577Z,12.67
2023-02-07T20:40:24.996Z,10.27
2023-02-07T20:42:52.253Z,12.57
2023-02-07T20:45:20.055Z,9.70
2023-02-07T20:47:47.578Z,12.40
2023-02-07T20:50:14.756Z,12.37
2023-02-07T20:52:42.195Z,10.63
2023-02-07T20:55:09.754Z,11.90
2023-02-07T20:57:36.941Z,12.83
2023-02-07T21:00:05.016Z,11.20
2023-02-07T21:02:32.302Z,10.70
2023-02-07T21:05:00.153Z,13.33
2023-02-07T21:07:27.487Z,10.90
2023-02-07T21:09:54.745Z,13.43
2023-02-07T21:12:22.112Z,11.03
2023-02-07T21:14:50.018Z,13.67
2023-02-07T21:17:17.906Z,10.27
2023-02-07T21:19:45.489Z,13.50
2023-02-07T21:22:13.299Z,12.33
2023-02-07T21:24:42.293Z,12.97
2023-02-07T21:27:10.375Z,12.97
2023-02-07T21:29:38.497Z,13.53
2023-02-07T21:32:06.275Z,12.80
2023-02-07T21:34:34.162Z,11.30
2023-02-07T21:37:01.332Z,11.83
2023-02-07T21:39:28.514Z,12.33
2023-02-07T21:41:55.862Z,11.23
2023-02-07T21:44:23.441Z,15.73
2023-02-07T21:46:51.659Z,12.20
2023-02-07T21:49:20.434Z,13.53
2023-02-07T21:51:49.733Z,11.27
2023-02-07T21:54:17.687Z,13.03
2023-02-07T21:56:45.820Z,13.37
2023-02-07T21:59:18.303Z,13.47
2023-02-07T22:01:46.577Z,13.77
2023-02-07T22:04:14.790Z,13.50
2023-02-07T22:06:43.796Z,14.83
2023-02-07T22:09:13.013Z,15.10
2023-02-07T22:11:40.692Z,12.17
2023-02-07T22:14:07.972Z,16.60
2023-02-07T22:16:35.345Z,12.97
2023-02-07T22:19:05.765Z,14.60
2023-02-07T22:21:35.456Z,15.63
2023-02-07T22:24:05.594Z,13.17
2023-02-07T22:26:34.019Z,12.70
2023-02-07T22:29:02.542Z,11.87
2023-02-07T22:31:31.527Z,11.10
2023-02-07T22:34:13.417Z,14.90
2023-02-07T22:36:43.330Z,14.90
2023-02-07T22:39:12.623Z,13.97
2023-02-07T22:41:39.912Z,13.20
2023-02-07T22:44:07.205Z,11.47
2023-02-07T22:46:34.796Z,12.13
2023-02-07T22:49:02.330Z,14.97
2023-02-07T22:51:34.579Z,12.87
2023-02-07T22:54:05.499Z,12.93
2023-02-07T22:56:34.384Z,13.23
2023-02-07T22:59:01.832Z,13.50
2023-02-07T23:01:34.842Z,11.60
2023-02-07T23:04:04.306Z,14.53
2023-02-07T23:06:32.554Z,14.30
2023-02-07T23:09:00.592Z,14.73
2023-02-07T23:11:28.020Z,13.17
2023-02-07T23:13:55.367Z,16.07
2023-02-07T23:16:26.641Z,14.47
2023-02-07T23:18:58.467Z,15.33
2023-02-07T23:21:27.117Z,15.03
2023-02-07T23:23:57.065Z,14.87
2023-02-07T23:26:26.092Z,13.90
2023-02-07T23:28:53.890Z,14.70
2023-02-07T23:31:23.040Z,14.17
2023-02-07T23:33:51.241Z,13.00
2023-02-07T23:36:19.265Z,14.17
2023-02-07T23:38:47.830Z,14.00
2023-02-07T23:41:15.627Z,12.37
2023-02-07T23:43:43.041Z,12.87
2023-02-07T23:46:11.744Z,12.90
2023-02-07T23:48:39.140Z,13.07
2023-02-07T23:51:07.046Z,13.57
2023-02-07T23:53:35.266Z,15.43
2023-02-07T23:56:04.831Z,12.40
2023-02-07T23:58:33.223Z,14.70
